X  Chiuso Dati meteorologici dell'aviazione (METAR)     LIPX Verona-Villafranca Valerio Catullo Airport
Temperatura
19°C Temperatura
16°C Punto di rugiada
83% Umidità



Vento
8 KM/h
5 MPH
2 M/S
4 KTS



360°
Nord
Condizioni attuali

Chiaro Chiaro
Pressione 1012.92 (hPa) - 29.91 (inHg)
Visibilità 6.2 (miglio) - 10 (km)
Aeroporto
Codice-Aeroporto LIPX

Posizione: Verona-Villafranca Valerio Catullo Airport
Distanza: 14 (km)

Metar:
LIPX 220250Z AUTO 36004KT 9999 NCD 19/16 Q1013

Ore: 22-05-2022 04:50 CEST